createdAt,value
2019-03-26T00:12:59.868Z,4.80
2019-03-26T00:13:57.588Z,4.00
2019-03-26T00:15:49.990Z,3.90
2019-03-26T00:16:49.687Z,3.80
2019-03-26T00:17:49.630Z,4.50
2019-03-26T00:18:49.626Z,3.60
2019-03-26T00:19:49.831Z,4.00
2019-03-26T00:20:49.605Z,4.10
2019-03-26T00:21:49.597Z,4.50
2019-03-26T00:22:49.584Z,4.10
2019-03-26T00:23:49.575Z,4.40
2019-03-26T00:24:49.569Z,4.40
2019-03-26T00:25:49.558Z,4.40
2019-03-26T00:26:49.555Z,3.70
2019-03-26T00:27:49.537Z,4.30
2019-03-26T00:28:49.537Z,3.70
2019-03-26T00:29:49.520Z,4.40
2019-03-26T00:30:49.511Z,4.60
2019-03-26T00:31:49.509Z,4.50
2019-03-26T00:32:49.488Z,4.50
2019-03-26T00:33:49.485Z,4.60
2019-03-26T00:34:49.470Z,3.80
2019-03-26T00:35:49.464Z,4.70
2019-03-26T00:36:49.451Z,4.40
2019-03-26T00:37:49.442Z,4.10
2019-03-26T00:38:49.583Z,4.00
2019-03-26T00:39:49.426Z,4.40
2019-03-26T00:40:49.416Z,4.70
2019-03-26T00:41:49.406Z,4.40
2019-03-26T00:42:49.396Z,4.70
2019-03-26T00:43:49.386Z,3.80
2019-03-26T00:44:49.391Z,4.40
2019-03-26T00:45:49.365Z,3.80
2019-03-26T00:46:49.353Z,3.90
2019-03-26T00:47:49.344Z,4.20
2019-03-26T00:48:49.343Z,4.30
2019-03-26T00:49:49.332Z,3.50
2019-03-26T00:50:49.319Z,3.50
2019-03-26T00:51:49.311Z,4.00
2019-03-26T00:52:49.314Z,4.20
2019-03-26T00:53:49.293Z,4.00
2019-03-26T00:54:49.295Z,3.40
2019-03-26T00:55:49.274Z,3.70
2019-03-26T00:56:49.262Z,3.60
2019-03-26T00:57:49.249Z,3.60
2019-03-26T00:58:49.262Z,3.90
2019-03-26T00:59:49.254Z,3.40
2019-03-26T01:00:49.244Z,3.70
2019-03-26T01:01:49.224Z,3.50
2019-03-26T01:02:49.211Z,3.50
2019-03-26T01:03:49.209Z,3.60
2019-03-26T01:04:49.189Z,3.00
2019-03-26T01:05:49.182Z,3.70
2019-03-26T01:06:49.184Z,3.50
2019-03-26T01:07:49.160Z,3.50
2019-03-26T01:08:49.155Z,3.30
2019-03-26T01:09:49.145Z,3.70
2019-03-26T01:10:49.134Z,3.80
2019-03-26T01:11:49.129Z,3.90
2019-03-26T01:12:49.113Z,3.20
2019-03-26T01:13:49.112Z,4.10
2019-03-26T01:14:49.096Z,3.30
2019-03-26T01:15:49.087Z,3.50
2019-03-26T01:16:49.080Z,3.50
2019-03-26T01:17:49.071Z,3.50
2019-03-26T01:18:49.057Z,4.30
2019-03-26T01:19:49.051Z,3.20
2019-03-26T01:20:49.045Z,3.30
2019-03-26T01:21:49.023Z,4.00
2019-03-26T01:22:49.038Z,3.70
2019-03-26T01:23:49.012Z,3.30
2019-03-26T01:24:49.050Z,3.50
2019-03-26T01:25:48.995Z,3.30
2019-03-26T01:26:48.987Z,2.90
2019-03-26T01:27:48.975Z,3.40
2019-03-26T01:28:48.965Z,3.30
2019-03-26T01:29:48.954Z,3.90
2019-03-26T01:30:48.944Z,3.40
2019-03-26T01:31:48.938Z,3.60
2019-03-26T01:32:48.930Z,3.60
2019-03-26T01:33:48.923Z,3.80
2019-03-26T01:34:48.909Z,3.60
2019-03-26T01:35:48.894Z,3.00
2019-03-26T01:36:48.892Z,3.40
2019-03-26T01:37:48.880Z,3.80
2019-03-26T01:38:48.897Z,3.90
2019-03-26T01:39:48.860Z,3.30
2019-03-26T01:40:48.853Z,3.20
2019-03-26T01:41:48.841Z,3.90
2019-03-26T01:42:48.826Z,4.00
2019-03-26T01:43:48.820Z,3.10
2019-03-26T01:44:48.815Z,3.70
2019-03-26T01:45:48.806Z,4.00
2019-03-26T01:46:48.804Z,3.90
2019-03-26T01:47:48.785Z,4.00
2019-03-26T01:48:48.781Z,3.80
2019-03-26T01:49:48.765Z,3.50
2019-03-26T01:50:48.750Z,3.80
2019-03-26T01:51:48.766Z,3.40
2019-03-26T01:52:48.737Z,3.70
2019-03-26T01:53:48.721Z,3.90
2019-03-26T01:54:48.720Z,3.40
2019-03-26T01:55:48.789Z,3.40
2019-03-26T01:56:48.705Z,4.10
2019-03-26T01:57:48.701Z,3.70
2019-03-26T01:58:48.694Z,3.60
2019-03-26T01:59:48.671Z,3.70
2019-03-26T02:00:48.663Z,3.10
2019-03-26T02:01:48.651Z,3.30
2019-03-26T02:02:48.645Z,4.10
2019-03-26T02:03:48.651Z,3.70
2019-03-26T02:04:59.193Z,3.50
2019-03-26T02:05:48.619Z,3.50
2019-03-26T02:06:48.613Z,3.70
2019-03-26T02:07:48.592Z,3.50
2019-03-26T02:08:48.605Z,3.00
2019-03-26T02:09:48.585Z,3.40
2019-03-26T02:10:48.593Z,3.90
2019-03-26T02:11:48.574Z,2.90
2019-03-26T02:12:48.849Z,3.60
2019-03-26T02:13:48.550Z,3.40
2019-03-26T02:14:48.528Z,3.60
2019-03-26T02:15:48.540Z,3.10
2019-03-26T02:16:48.526Z,3.30
2019-03-26T02:17:48.503Z,3.30
2019-03-26T02:18:48.494Z,3.10
2019-03-26T02:19:48.485Z,3.00
2019-03-26T02:20:48.476Z,3.60
2019-03-26T02:21:48.480Z,3.20
2019-03-26T02:22:48.465Z,2.80
2019-03-26T02:23:48.445Z,3.00
2019-03-26T02:24:48.439Z,2.90
2019-03-26T02:25:48.426Z,2.30
2019-03-26T02:26:48.417Z,3.20
2019-03-26T02:27:48.414Z,2.90
2019-03-26T02:28:48.400Z,2.70
2019-03-26T02:29:48.392Z,3.10
2019-03-26T02:30:48.385Z,3.10
2019-03-26T02:31:48.381Z,2.90
2019-03-26T02:32:48.369Z,3.20
2019-03-26T02:33:48.356Z,3.10
2019-03-26T02:34:48.342Z,2.70
2019-03-26T02:35:48.337Z,3.20
2019-03-26T02:36:48.328Z,2.60
2019-03-26T02:37:48.319Z,2.70
2019-03-26T02:38:48.310Z,2.70
2019-03-26T02:39:48.302Z,3.30
2019-03-26T02:40:48.293Z,3.10
2019-03-26T02:41:48.275Z,4.20
2019-03-26T02:42:48.279Z,2.80
2019-03-26T02:43:48.262Z,3.70
2019-03-26T02:44:48.248Z,3.40
2019-03-26T02:45:48.242Z,3.20
2019-03-26T02:46:48.243Z,3.10
2019-03-26T02:47:48.222Z,3.10
2019-03-26T02:48:48.216Z,2.90
2019-03-26T02:49:48.199Z,3.30
2019-03-26T02:50:48.193Z,2.90
2019-03-26T02:51:48.196Z,3.60
2019-03-26T02:52:48.182Z,3.00
2019-03-26T02:53:48.164Z,3.30
2019-03-26T02:54:48.156Z,3.30
2019-03-26T02:55:48.150Z,3.60
2019-03-26T02:56:48.140Z,2.80
2019-03-26T02:57:48.129Z,2.80
2019-03-26T02:58:48.121Z,3.10
2019-03-26T02:59:48.110Z,3.90
2019-03-26T03:00:48.119Z,2.80
2019-03-26T03:01:48.093Z,2.90
2019-03-26T03:02:48.083Z,3.20
2019-03-26T03:03:48.066Z,3.10
2019-03-26T03:04:48.077Z,2.90
2019-03-26T03:05:48.047Z,2.70
2019-03-26T03:06:48.037Z,3.60
2019-03-26T03:07:48.033Z,2.90
2019-03-26T03:08:48.035Z,3.20
2019-03-26T03:09:48.018Z,3.30
2019-03-26T03:10:48.014Z,3.60
2019-03-26T03:11:47.993Z,3.00
2019-03-26T03:12:47.981Z,3.30
2019-03-26T03:13:47.968Z,3.60
2019-03-26T03:14:47.987Z,3.20
2019-03-26T03:15:47.971Z,2.80
2019-03-26T03:16:47.959Z,3.00
2019-03-26T03:17:47.948Z,3.00
2019-03-26T03:18:47.919Z,3.00
2019-03-26T03:19:47.937Z,3.60
2019-03-26T03:20:47.907Z,3.20
2019-03-26T03:21:47.914Z,3.40
2019-03-26T03:22:47.895Z,4.40
2019-03-26T03:23:47.880Z,3.20
2019-03-26T03:24:47.865Z,3.30
2019-03-26T03:25:47.864Z,3.20
2019-03-26T03:26:47.843Z,3.20
2019-03-26T03:27:47.854Z,3.00
2019-03-26T03:28:47.837Z,3.30
2019-03-26T03:29:47.816Z,3.30
2019-03-26T03:30:47.813Z,3.60
2019-03-26T03:31:47.805Z,3.10
2019-03-26T03:32:47.823Z,3.00
2019-03-26T03:33:47.787Z,3.00
2019-03-26T03:34:47.806Z,3.00
2019-03-26T03:35:52.708Z,3.40
2019-03-26T03:36:47.760Z,3.70
2019-03-26T03:37:47.761Z,2.90
2019-03-26T03:38:47.754Z,2.80
2019-03-26T03:39:47.727Z,3.20
2019-03-26T03:40:47.725Z,2.90
2019-03-26T03:41:47.715Z,3.30
2019-03-26T03:42:47.711Z,3.30
2019-03-26T03:43:47.705Z,3.30
2019-03-26T03:44:47.673Z,2.80
2019-03-26T03:45:47.669Z,2.80
2019-03-26T03:46:47.666Z,3.30
2019-03-26T03:47:47.641Z,2.90
2019-03-26T03:48:47.655Z,3.30
2019-03-26T03:49:47.627Z,3.60
2019-03-26T03:50:47.618Z,2.90
2019-03-26T03:51:47.630Z,3.00
2019-03-26T03:52:47.604Z,2.70
2019-03-26T03:53:47.591Z,3.10
2019-03-26T03:54:47.594Z,3.00
2019-03-26T03:55:47.572Z,4.20
2019-03-26T03:56:47.564Z,3.20
2019-03-26T03:57:47.555Z,3.70
2019-03-26T03:58:47.564Z,3.70
2019-03-26T03:59:47.533Z,3.70
2019-03-26T04:00:47.533Z,4.10
2019-03-26T04:01:47.512Z,3.70
2019-03-26T04:02:47.504Z,3.80
2019-03-26T04:03:47.504Z,4.00
2019-03-26T04:04:47.501Z,3.90
2019-03-26T04:05:47.501Z,4.00
2019-03-26T04:06:47.468Z,4.30
2019-03-26T04:07:47.461Z,3.90
2019-03-26T04:08:47.559Z,3.60
2019-03-26T04:09:47.437Z,4.60
2019-03-26T04:10:47.437Z,4.20
2019-03-26T04:11:47.429Z,4.40
2019-03-26T04:12:47.413Z,4.50
2019-03-26T04:13:47.404Z,4.80
2019-03-26T04:14:47.401Z,4.60
2019-03-26T04:15:47.375Z,4.70
2019-03-26T04:16:47.377Z,5.00
2019-03-26T04:17:47.355Z,4.70
2019-03-26T04:18:47.379Z,5.00
2019-03-26T04:19:47.344Z,4.60
2019-03-26T04:20:47.334Z,4.70
2019-03-26T04:21:47.318Z,5.10
2019-03-26T04:22:47.314Z,4.90
2019-03-26T04:23:47.321Z,5.50
2019-03-26T04:24:47.293Z,4.80
2019-03-26T04:25:47.294Z,5.20
2019-03-26T04:26:47.276Z,5.00
2019-03-26T04:27:47.296Z,4.80
2019-03-26T04:28:47.263Z,5.30
2019-03-26T04:29:47.261Z,4.30
2019-03-26T04:30:47.239Z,4.20
2019-03-26T04:31:47.245Z,4.40
2019-03-26T04:32:47.220Z,4.50
2019-03-26T04:33:47.212Z,4.70
2019-03-26T04:34:47.210Z,4.80
2019-03-26T04:35:47.190Z,4.30
2019-03-26T04:36:47.183Z,4.70
2019-03-26T04:37:47.167Z,3.80
2019-03-26T04:38:47.166Z,4.30
2019-03-26T04:39:47.150Z,4.20
2019-03-26T04:40:47.140Z,4.20
2019-03-26T04:41:47.128Z,3.80
2019-03-26T04:42:47.135Z,4.10
2019-03-26T04:43:47.110Z,4.60
2019-03-26T04:44:47.117Z,3.90
2019-03-26T04:45:47.094Z,3.80
2019-03-26T04:46:47.094Z,4.40
2019-03-26T04:47:47.076Z,3.80
2019-03-26T04:48:47.065Z,4.00
2019-03-26T04:49:47.056Z,3.90
2019-03-26T04:50:47.042Z,4.60
2019-03-26T04:51:47.044Z,3.30
2019-03-26T04:52:47.030Z,3.20
2019-03-26T04:53:47.016Z,3.40
2019-03-26T04:54:47.020Z,3.10
2019-03-26T04:55:47.000Z,3.40
2019-03-26T04:56:46.987Z,3.30
2019-03-26T04:57:46.985Z,3.90
2019-03-26T04:58:46.976Z,3.50
2019-03-26T04:59:46.962Z,2.90
2019-03-26T05:00:46.947Z,3.80
2019-03-26T05:01:46.944Z,3.40
2019-03-26T05:02:46.931Z,3.50
2019-03-26T05:03:46.938Z,3.10
2019-03-26T05:04:46.917Z,3.70
2019-03-26T05:05:46.907Z,3.50
2019-03-26T05:06:46.892Z,3.60
2019-03-26T05:07:46.887Z,3.20
2019-03-26T05:08:46.883Z,2.60
2019-03-26T05:09:46.865Z,2.50
2019-03-26T05:10:49.226Z,2.80
2019-03-26T05:11:46.843Z,2.80
2019-03-26T05:12:46.840Z,2.50
2019-03-26T05:13:46.824Z,3.20
2019-03-26T05:14:46.812Z,2.80
2019-03-26T05:15:46.808Z,2.80
2019-03-26T05:16:46.803Z,3.30
2019-03-26T05:17:46.798Z,2.90
2019-03-26T05:18:46.795Z,2.60
2019-03-26T05:19:46.766Z,3.10
2019-03-26T05:20:46.765Z,2.60
2019-03-26T05:21:46.756Z,2.90
2019-03-26T05:22:46.740Z,3.40
2019-03-26T05:23:46.723Z,2.60
2019-03-26T05:24:46.720Z,3.40
2019-03-26T05:25:46.712Z,3.50
2019-03-26T05:26:46.702Z,3.20
2019-03-26T05:27:46.697Z,3.10
2019-03-26T05:28:46.687Z,2.80
2019-03-26T05:29:46.676Z,2.90
2019-03-26T05:30:46.678Z,2.90
2019-03-26T05:31:46.649Z,3.00
2019-03-26T05:32:46.650Z,2.80
2019-03-26T05:33:46.638Z,2.80
2019-03-26T05:34:46.625Z,3.00
2019-03-26T05:35:46.619Z,3.20
2019-03-26T05:36:51.457Z,2.60
2019-03-26T05:37:46.597Z,3.00
2019-03-26T05:38:46.591Z,3.50
2019-03-26T05:39:46.584Z,3.00
2019-03-26T05:40:46.574Z,2.40
2019-03-26T05:41:46.565Z,2.70
2019-03-26T05:42:46.564Z,2.90
2019-03-26T05:43:46.548Z,3.30
2019-03-26T05:44:46.535Z,2.80
2019-03-26T05:45:46.523Z,3.30
2019-03-26T05:46:46.514Z,3.70
2019-03-26T05:47:46.508Z,3.10
2019-03-26T05:48:46.507Z,2.70
2019-03-26T05:49:46.490Z,3.20
2019-03-26T05:50:46.479Z,3.20
2019-03-26T05:51:46.470Z,2.90
2019-03-26T05:52:46.462Z,3.20
2019-03-26T05:53:46.450Z,2.90
2019-03-26T05:54:46.452Z,3.20
2019-03-26T05:55:46.427Z,3.50
2019-03-26T05:56:46.422Z,3.30
2019-03-26T05:57:47.345Z,3.40
2019-03-26T05:58:46.402Z,3.20
2019-03-26T05:59:46.409Z,3.80
2019-03-26T06:00:46.384Z,2.70
2019-03-26T06:01:46.374Z,3.00
2019-03-26T06:02:46.362Z,3.40
2019-03-26T06:03:46.354Z,3.40
2019-03-26T06:04:46.345Z,3.00
2019-03-26T06:05:46.332Z,2.70
2019-03-26T06:06:46.322Z,3.30
2019-03-26T06:07:46.340Z,3.20
2019-03-26T06:08:46.314Z,2.90
2019-03-26T06:09:46.295Z,2.70
2019-03-26T06:10:46.329Z,3.30
2019-03-26T06:11:46.284Z,3.30
2019-03-26T06:12:46.273Z,3.30
2019-03-26T06:13:46.266Z,3.40
2019-03-26T06:14:46.263Z,3.40
2019-03-26T06:15:46.245Z,2.90
2019-03-26T06:16:46.228Z,3.20
2019-03-26T06:17:46.234Z,3.20
2019-03-26T06:18:46.214Z,3.80
2019-03-26T06:19:46.209Z,3.10
2019-03-26T06:20:46.195Z,3.30
2019-03-26T06:21:46.199Z,3.00
2019-03-26T06:22:46.188Z,3.20
2019-03-26T06:23:46.181Z,3.70
2019-03-26T06:24:46.172Z,3.60
2019-03-26T06:25:46.149Z,3.40
2019-03-26T06:26:46.143Z,3.90
2019-03-26T06:27:46.129Z,3.60
2019-03-26T06:28:46.128Z,3.80
2019-03-26T06:29:46.109Z,4.00
2019-03-26T06:30:46.111Z,4.10
2019-03-26T06:31:46.108Z,3.60
2019-03-26T06:32:46.088Z,3.70
2019-03-26T06:33:46.070Z,4.40
2019-03-26T06:34:46.067Z,3.70
2019-03-26T06:35:46.055Z,3.80
2019-03-26T06:36:46.053Z,3.30
2019-03-26T06:37:46.043Z,4.30
2019-03-26T06:38:46.039Z,3.70
2019-03-26T06:39:46.019Z,4.30
2019-03-26T06:40:46.022Z,4.00
2019-03-26T06:41:45.998Z,3.70
2019-03-26T06:42:45.994Z,3.80
2019-03-26T06:43:45.980Z,4.40
2019-03-26T06:44:45.971Z,4.00
2019-03-26T06:45:45.959Z,4.30
2019-03-26T06:46:45.953Z,4.40
2019-03-26T06:47:45.949Z,3.90
2019-03-26T06:48:45.936Z,4.30
2019-03-26T06:49:45.929Z,3.90
2019-03-26T06:50:45.917Z,4.00
2019-03-26T06:51:45.902Z,4.20
2019-03-26T06:52:45.907Z,4.00
2019-03-26T06:53:45.888Z,3.90
2019-03-26T06:54:45.878Z,4.00
2019-03-26T06:55:45.871Z,3.20
2019-03-26T06:56:45.864Z,4.00
2019-03-26T06:57:45.851Z,3.50
2019-03-26T06:58:45.846Z,3.40
2019-03-26T06:59:45.831Z,3.50
2019-03-26T07:00:45.829Z,3.70
2019-03-26T07:01:45.812Z,3.50
2019-03-26T07:02:45.808Z,3.40
2019-03-26T07:03:45.791Z,2.80
2019-03-26T07:04:45.796Z,3.40
2019-03-26T07:05:45.776Z,3.00
2019-03-26T07:06:45.778Z,2.80
2019-03-26T07:07:45.764Z,3.40
2019-03-26T07:08:45.754Z,2.90
2019-03-26T07:09:45.750Z,2.60
2019-03-26T07:10:45.740Z,2.70
2019-03-26T07:11:45.739Z,2.70
2019-03-26T07:12:45.717Z,2.60
2019-03-26T07:13:45.713Z,2.30
2019-03-26T07:14:45.700Z,2.70
2019-03-26T07:15:45.694Z,2.70
2019-03-26T07:16:45.678Z,3.20
2019-03-26T07:17:45.670Z,2.40
2019-03-26T07:18:45.663Z,3.00
2019-03-26T07:19:45.656Z,2.80
2019-03-26T07:20:45.647Z,3.20
2019-03-26T07:21:49.765Z,2.90
2019-03-26T07:22:45.628Z,3.20
2019-03-26T07:23:45.621Z,2.70
2019-03-26T07:24:45.615Z,3.90
2019-03-26T07:25:45.621Z,2.90
2019-03-26T07:26:45.584Z,3.20
2019-03-26T07:27:45.585Z,3.40
2019-03-26T07:28:45.576Z,2.90
2019-03-26T07:29:45.566Z,3.00
2019-03-26T07:30:45.555Z,3.00
2019-03-26T07:31:45.553Z,2.70
2019-03-26T07:32:45.541Z,3.00
2019-03-26T07:33:45.535Z,3.40
2019-03-26T07:34:45.524Z,2.90
2019-03-26T07:35:45.511Z,2.80
2019-03-26T07:36:45.506Z,2.70
2019-03-26T07:37:45.970Z,3.50
2019-03-26T07:38:45.488Z,3.60
2019-03-26T07:39:45.483Z,2.80
2019-03-26T07:40:45.472Z,2.80
2019-03-26T07:41:45.461Z,2.80
2019-03-26T07:42:45.461Z,2.80
2019-03-26T07:43:45.445Z,3.30
2019-03-26T07:44:45.700Z,3.50
2019-03-26T07:45:45.430Z,4.00
2019-03-26T07:46:45.422Z,3.50
2019-03-26T07:47:45.411Z,3.80
2019-03-26T07:48:45.418Z,3.60
2019-03-26T07:49:45.395Z,3.40
2019-03-26T07:50:45.384Z,4.40
2019-03-26T07:51:45.376Z,3.50
2019-03-26T07:52:45.374Z,3.70
2019-03-26T07:53:45.362Z,4.00
2019-03-26T07:54:45.355Z,3.80
2019-03-26T07:55:45.338Z,4.10
2019-03-26T07:56:45.336Z,3.60
2019-03-26T07:57:45.328Z,4.00
2019-03-26T07:58:45.318Z,3.80
2019-03-26T07:59:45.311Z,3.40
2019-03-26T08:00:45.307Z,3.30
2019-03-26T08:01:45.305Z,3.30
2019-03-26T08:02:45.287Z,3.20
2019-03-26T08:03:45.282Z,3.50
2019-03-26T08:04:45.274Z,3.40
2019-03-26T08:05:45.267Z,3.20
2019-03-26T08:06:45.262Z,3.50
2019-03-26T08:07:57.475Z,3.40
2019-03-26T08:08:45.240Z,3.70
2019-03-26T08:09:45.230Z,3.50
2019-03-26T08:10:45.222Z,3.10
2019-03-26T08:11:45.215Z,3.30
2019-03-26T08:12:45.224Z,3.70
2019-03-26T08:13:45.232Z,3.30
2019-03-26T08:14:45.202Z,3.40
2019-03-26T08:15:45.184Z,3.00
2019-03-26T08:16:45.199Z,3.40
2019-03-26T08:17:45.497Z,3.80
2019-03-26T08:18:45.176Z,3.10
2019-03-26T08:19:45.158Z,4.10
2019-03-26T08:20:45.149Z,3.00
2019-03-26T08:21:45.149Z,3.90
2019-03-26T08:22:45.133Z,3.70
2019-03-26T08:23:45.129Z,3.20
2019-03-26T08:24:45.118Z,3.80
2019-03-26T08:25:45.109Z,3.60
2019-03-26T08:26:45.104Z,3.70
2019-03-26T08:27:45.093Z,3.50
2019-03-26T08:28:45.087Z,3.60
2019-03-26T08:29:45.075Z,3.50
2019-03-26T08:30:45.065Z,3.40
2019-03-26T08:31:45.060Z,4.40
2019-03-26T08:32:45.053Z,3.10
2019-03-26T08:33:45.051Z,3.60
2019-03-26T08:34:46.714Z,3.30
2019-03-26T08:35:45.030Z,3.50
2019-03-26T08:36:45.024Z,3.50
2019-03-26T08:37:45.019Z,4.00
2019-03-26T08:38:45.006Z,3.30
2019-03-26T08:39:44.993Z,3.10
2019-03-26T08:40:44.995Z,3.00
2019-03-26T08:41:44.992Z,3.40
2019-03-26T08:42:44.973Z,3.00
2019-03-26T08:43:44.966Z,2.90
2019-03-26T08:44:44.958Z,3.10
2019-03-26T08:45:44.947Z,3.50
2019-03-26T08:46:46.350Z,3.50
2019-03-26T08:47:44.935Z,3.40
2019-03-26T08:48:44.930Z,3.10
2019-03-26T08:49:44.921Z,2.80
2019-03-26T08:50:44.910Z,3.20
2019-03-26T08:51:44.899Z,3.00
2019-03-26T08:52:44.891Z,3.40
2019-03-26T08:53:44.884Z,3.20
2019-03-26T08:54:44.873Z,3.60
2019-03-26T08:55:44.873Z,3.60
2019-03-26T08:56:44.862Z,3.90
2019-03-26T08:57:44.854Z,3.00
2019-03-26T08:58:44.849Z,3.60
2019-03-26T08:59:44.849Z,3.30
2019-03-26T09:00:44.849Z,4.00
2019-03-26T09:01:44.825Z,2.60
2019-03-26T09:02:44.825Z,3.00
2019-03-26T09:03:44.811Z,3.80
2019-03-26T09:04:44.805Z,3.30
2019-03-26T09:05:44.796Z,3.50
2019-03-26T09:06:44.780Z,3.90
2019-03-26T09:07:44.787Z,3.60
2019-03-26T09:08:44.774Z,2.80
2019-03-26T09:09:44.766Z,3.40
2019-03-26T09:10:51.556Z,3.50
2019-03-26T09:11:44.753Z,3.60
2019-03-26T09:12:44.745Z,3.40
2019-03-26T09:13:44.729Z,3.60
2019-03-26T09:14:44.730Z,3.20
2019-03-26T09:15:44.719Z,3.20
2019-03-26T09:16:44.716Z,3.70
2019-03-26T09:17:44.963Z,3.30
2019-03-26T09:18:44.703Z,3.30
2019-03-26T09:19:44.692Z,2.90
2019-03-26T09:20:44.683Z,3.50
2019-03-26T09:21:44.685Z,3.00
2019-03-26T09:22:44.670Z,3.50
2019-03-26T09:23:44.664Z,3.60
2019-03-26T09:24:44.683Z,3.40
2019-03-26T09:25:44.654Z,3.00
2019-03-26T09:26:44.645Z,3.40
2019-03-26T09:27:44.641Z,3.70
2019-03-26T09:28:47.665Z,3.30
2019-03-26T09:29:44.628Z,3.00
2019-03-26T09:30:44.622Z,3.50
2019-03-26T09:31:44.621Z,3.60
2019-03-26T09:32:44.606Z,3.50
2019-03-26T09:33:44.602Z,3.20
2019-03-26T09:34:44.602Z,3.40
2019-03-26T09:35:44.591Z,4.00
2019-03-26T09:36:44.647Z,3.30
2019-03-26T09:37:44.576Z,3.60
2019-03-26T09:38:44.570Z,3.50
2019-03-26T09:39:44.571Z,3.70
2019-03-26T09:40:44.563Z,3.80
2019-03-26T09:41:44.551Z,3.90
2019-03-26T09:42:44.551Z,3.80
2019-03-26T09:43:44.536Z,4.10
2019-03-26T09:44:44.538Z,4.50
2019-03-26T09:45:44.543Z,4.00
2019-03-26T09:46:44.521Z,4.00
2019-03-26T09:47:44.521Z,5.00
2019-03-26T09:48:44.517Z,4.80
2019-03-26T09:49:44.510Z,4.40
2019-03-26T09:50:44.507Z,4.90
2019-03-26T09:51:44.500Z,4.70
2019-03-26T09:52:44.491Z,4.90
2019-03-26T09:53:44.492Z,4.50
2019-03-26T09:54:44.490Z,3.70
2019-03-26T09:55:44.476Z,4.50
2019-03-26T09:56:44.475Z,5.80
2019-03-26T09:57:44.467Z,5.40
2019-03-26T09:58:44.459Z,5.20
2019-03-26T09:59:44.457Z,4.50
2019-03-26T10:00:44.481Z,4.60
2019-03-26T10:01:44.441Z,4.70
2019-03-26T10:02:44.448Z,4.70
2019-03-26T10:03:44.440Z,4.60
2019-03-26T10:04:44.430Z,5.00
2019-03-26T10:05:44.430Z,4.70
2019-03-26T10:06:44.417Z,5.20
2019-03-26T10:07:44.421Z,5.10
2019-03-26T10:08:52.465Z,4.50
2019-03-26T10:09:44.404Z,4.90
2019-03-26T10:10:44.400Z,4.30
2019-03-26T10:11:44.398Z,4.40
2019-03-26T10:12:44.399Z,4.50
2019-03-26T10:13:44.386Z,5.00
2019-03-26T10:14:44.386Z,4.80
2019-03-26T10:15:44.373Z,4.60
2019-03-26T10:16:44.369Z,4.80
2019-03-26T10:17:44.365Z,4.20
2019-03-26T10:18:44.359Z,3.80
2019-03-26T10:19:44.356Z,4.20
2019-03-26T10:20:44.353Z,4.10
2019-03-26T10:21:44.344Z,4.30
2019-03-26T10:22:44.340Z,4.50
2019-03-26T10:23:44.336Z,4.10
2019-03-26T10:24:44.336Z,4.30
2019-03-26T10:25:44.329Z,4.40
2019-03-26T10:26:44.316Z,4.20
2019-03-26T10:27:44.313Z,3.90
2019-03-26T10:28:44.311Z,4.20
2019-03-26T10:29:44.302Z,4.50
2019-03-26T10:30:44.297Z,4.80
2019-03-26T10:31:44.297Z,5.30
2019-03-26T10:32:44.294Z,5.40
2019-03-26T10:33:44.279Z,5.30
2019-03-26T10:34:44.279Z,5.80
2019-03-26T10:35:44.268Z,5.30
2019-03-26T10:36:44.261Z,5.50
2019-03-26T10:37:44.253Z,5.40
2019-03-26T10:38:44.253Z,4.80
2019-03-26T10:39:44.245Z,4.40
2019-03-26T10:40:44.239Z,4.00
2019-03-26T10:41:44.291Z,4.00
2019-03-26T10:42:44.224Z,3.60
2019-03-26T10:43:44.219Z,3.80
2019-03-26T10:44:44.212Z,4.60
2019-03-26T10:45:44.213Z,4.00
2019-03-26T10:46:44.660Z,4.20
2019-03-26T10:47:44.190Z,4.20
2019-03-26T10:48:44.182Z,3.70
2019-03-26T10:49:44.177Z,3.80
2019-03-26T10:50:44.167Z,3.90
2019-03-26T10:51:44.166Z,4.40
2019-03-26T10:52:44.158Z,3.90
2019-03-26T10:53:44.159Z,4.30
2019-03-26T10:54:44.155Z,4.20
2019-03-26T10:55:44.145Z,3.90
2019-03-26T10:56:44.136Z,4.00
2019-03-26T10:57:44.129Z,4.50
2019-03-26T10:58:44.126Z,3.40
2019-03-26T10:59:44.114Z,4.00
2019-03-26T11:00:44.109Z,4.70
2019-03-26T11:01:44.101Z,3.80
2019-03-26T11:02:44.090Z,4.30
2019-03-26T11:03:44.097Z,4.10
2019-03-26T11:04:44.088Z,4.20
2019-03-26T11:05:44.083Z,3.50
2019-03-26T11:06:44.084Z,3.40
2019-03-26T11:07:44.073Z,4.30
2019-03-26T11:08:45.305Z,3.30
2019-03-26T11:09:44.057Z,3.90
2019-03-26T11:10:44.052Z,3.40
2019-03-26T11:11:44.045Z,3.70
2019-03-26T11:12:44.044Z,3.70
2019-03-26T11:13:44.036Z,3.60
2019-03-26T11:14:44.028Z,3.20
2019-03-26T11:15:44.028Z,4.20
2019-03-26T11:16:44.044Z,3.40
2019-03-26T11:17:44.019Z,3.60
2019-03-26T11:18:44.009Z,3.10
2019-03-26T11:19:46.441Z,2.90
2019-03-26T11:20:43.999Z,2.50
2019-03-26T11:21:43.985Z,3.40
2019-03-26T11:22:43.983Z,3.40
2019-03-26T11:23:43.983Z,3.20
2019-03-26T11:24:43.979Z,3.20
2019-03-26T11:25:43.971Z,3.40
2019-03-26T11:26:43.967Z,3.20
2019-03-26T11:27:43.967Z,3.90
2019-03-26T11:28:43.952Z,3.70
2019-03-26T11:29:43.961Z,3.70
2019-03-26T11:30:43.941Z,4.20
2019-03-26T11:31:43.935Z,3.90
2019-03-26T11:32:43.932Z,3.40
2019-03-26T11:33:43.926Z,3.80
2019-03-26T11:34:43.919Z,3.80
2019-03-26T11:35:43.921Z,3.40
2019-03-26T11:36:43.911Z,3.90
2019-03-26T11:37:43.906Z,4.30
2019-03-26T11:38:43.899Z,3.50
2019-03-26T11:39:43.897Z,3.40
2019-03-26T11:40:43.888Z,3.50
2019-03-26T11:41:43.881Z,3.80
2019-03-26T11:42:43.880Z,3.30
2019-03-26T11:43:43.874Z,2.90
2019-03-26T11:44:43.869Z,3.90
2019-03-26T11:45:43.859Z,3.60
2019-03-26T11:46:43.855Z,3.90
2019-03-26T11:47:43.851Z,3.10
2019-03-26T11:48:43.843Z,3.50
2019-03-26T11:49:43.836Z,3.00
2019-03-26T11:50:43.834Z,3.40
2019-03-26T11:51:43.829Z,3.70
2019-03-26T11:52:43.826Z,3.50
2019-03-26T11:53:43.812Z,3.40
2019-03-26T11:54:43.810Z,4.00
2019-03-26T11:55:43.807Z,3.60
2019-03-26T11:56:43.804Z,3.70
2019-03-26T11:57:43.801Z,3.70
2019-03-26T11:58:43.790Z,4.00
2019-03-26T11:59:43.784Z,4.20
2019-03-26T12:00:43.780Z,4.40
2019-03-26T12:01:43.779Z,6.10
2019-03-26T12:02:43.785Z,5.50
2019-03-26T12:03:43.765Z,5.60
2019-03-26T12:04:43.755Z,5.40
2019-03-26T12:05:43.750Z,6.10
2019-03-26T12:06:43.760Z,6.10
2019-03-26T12:07:43.747Z,5.30
2019-03-26T12:08:43.734Z,5.00
2019-03-26T12:09:46.398Z,4.90
2019-03-26T12:10:43.725Z,5.00
2019-03-26T12:11:43.716Z,4.60
2019-03-26T12:12:43.710Z,4.80
2019-03-26T12:13:43.705Z,4.40
2019-03-26T12:14:43.700Z,4.10
2019-03-26T12:15:43.697Z,3.40
2019-03-26T12:16:43.692Z,3.90
2019-03-26T12:17:43.688Z,3.30
2019-03-26T12:18:43.675Z,3.10
2019-03-26T12:19:43.674Z,2.80
2019-03-26T12:20:43.677Z,2.50
2019-03-26T12:21:43.657Z,3.10
2019-03-26T12:22:43.658Z,2.70
2019-03-26T12:23:43.643Z,3.10
2019-03-26T12:24:43.647Z,3.00
2019-03-26T12:25:43.627Z,2.40
2019-03-26T12:26:43.622Z,2.60
2019-03-26T12:27:43.620Z,2.60
2019-03-26T12:28:43.610Z,2.50
2019-03-26T12:29:43.618Z,2.80
2019-03-26T12:30:43.597Z,2.70
2019-03-26T12:31:43.609Z,2.40
2019-03-26T12:32:43.589Z,2.90
2019-03-26T12:33:43.591Z,2.70
2019-03-26T12:34:43.576Z,2.60
2019-03-26T12:35:43.568Z,2.50
2019-03-26T12:36:43.558Z,2.60
2019-03-26T12:37:43.558Z,2.50
2019-03-26T12:38:43.551Z,2.80
2019-03-26T12:39:44.330Z,2.60
2019-03-26T12:40:43.544Z,2.40
2019-03-26T12:41:43.535Z,2.90
2019-03-26T12:42:43.526Z,2.60
2019-03-26T12:43:43.527Z,2.50
2019-03-26T12:44:43.517Z,2.60
2019-03-26T12:45:43.512Z,2.70
2019-03-26T12:46:43.522Z,3.00
2019-03-26T12:47:43.504Z,2.90
2019-03-26T12:48:43.499Z,2.70
2019-03-26T12:49:43.490Z,3.20
2019-03-26T12:50:43.488Z,3.00
2019-03-26T12:51:43.477Z,2.90
2019-03-26T12:52:43.475Z,3.50
2019-03-26T12:53:43.471Z,2.70
2019-03-26T12:54:43.463Z,3.00
2019-03-26T12:55:43.458Z,3.70
2019-03-26T12:56:43.455Z,3.10
2019-03-26T12:57:43.447Z,3.70
2019-03-26T12:58:43.441Z,3.50
2019-03-26T12:59:43.438Z,3.60
2019-03-26T13:00:43.435Z,3.30
2019-03-26T13:01:43.428Z,3.30
2019-03-26T13:02:43.420Z,3.50
2019-03-26T13:03:43.425Z,3.20
2019-03-26T13:04:43.420Z,2.80
2019-03-26T13:05:43.408Z,3.40
2019-03-26T13:06:43.399Z,3.20
2019-03-26T13:07:43.393Z,3.30
2019-03-26T13:08:43.384Z,3.50
2019-03-26T13:09:43.399Z,3.40
2019-03-26T13:10:53.383Z,3.50
2019-03-26T13:11:43.377Z,3.30
2019-03-26T13:12:43.398Z,3.40
2019-03-26T13:13:43.361Z,3.80
2019-03-26T13:14:43.362Z,3.10
2019-03-26T13:15:43.372Z,3.60
2019-03-26T13:16:43.353Z,3.60
2019-03-26T13:17:43.341Z,3.80
2019-03-26T13:18:43.341Z,3.60
2019-03-26T13:19:43.344Z,3.50
2019-03-26T13:20:43.328Z,3.50
2019-03-26T13:21:43.329Z,4.00
2019-03-26T13:22:43.334Z,3.50
2019-03-26T13:23:43.309Z,3.80
2019-03-26T13:24:43.315Z,2.70
2019-03-26T13:25:43.327Z,2.90
2019-03-26T13:26:43.305Z,3.40
2019-03-26T13:27:43.297Z,3.40
2019-03-26T13:28:43.286Z,3.60
2019-03-26T13:29:43.283Z,3.50
2019-03-26T13:30:43.273Z,3.90
2019-03-26T13:31:43.270Z,4.00